Portada
METAR-TAF:

METAR-TAF

Aeroports :

Aeroport Internacional de Guangzhou-Baiyun

Canton, Xina

latitud: 23-10N, longitud: 113-20E, altitud: 8 m

Observació

L'informe es va fer fa 36 minuts, a les 02:00 UTC
Vent 6 kt del Sud, variant entre Sud-Est i Oest/Sud-Oest
Temperatura 32°C
Humitat 59%
Pressió 1004 hPa
Visibilitat 10 km o més
Núvols disperses a una alçada de 3000 ft

METAR: ZGGG 100200Z 19003MPS 140V240 9999 SCT030 32/23 Q1004 NOSIG

Hora: 10:36 (02:36 UTC)

Pronòstic

L'informe es va fer fa 5 hores i 30 minuts, a les 21:06 UTC
Pronòstic vàlid del 10 a les 00 UTC al 10 a les 24 UTC
Vent 6 kt del Sud/Sud-Est
Visibilitat: 8000 m
Núvols disperses a una alçada de 4000 ft

TAF: ZGGG 092106Z 1000/1024 16003MPS 8000 SCT040 TX37/1007Z TN27/1022Z

Observacions i pronòstics meteorològics de més de 4000 aeroports (METAR i TAF).

Les estacions disponibles són els punts grocs i vermells al mapa.

Posi el ratolí al punt desitjat per veure el nom de l'estació.

Feu clic per veure les observacions i els pronòstics meteorològics.

Per canviar el mapa: feu clic els botons verds amb una creu de color negre per apropar; al botó verd amb un guió per allunyar la imatge; o en les fletxes verdes per a mapes adjacents.


METAR-TAF: